Historyczne dane pomiarowe

Dodano dane terminowe – wersja testowa.

Dane z okresu 1951-2019

Wersja bazy: 1.34 [2019-03-16, lista zmian], aktualizacja planowana na 2019-04-15

Dane meteo z obszaru Polski uzyskane na podstawie danych udostępnionych przez Instytut Meteorologii i Gospodarki Wodnej – Państwowy Instytut Badawczy.

 

Wybierz Datę:    

       

TemperaturaWilgotnośćWiatrCiśnienieOpadyŚniegCzas trwania zjawisk
 Stacja t tx tn tng RH VA  wxwx mslp ppp RRR   cm mm wxwxwxwxwxwxwx
1987-07-08 21.3 24.4 18.6 19.4 65.3- 5.3 1.7---- 0.1------------
1987-07-07 21.7 27.4 15.7 11.2 52.5- 1.7 2.0---- 0.0------------
1987-07-06 16.5 18.9 11.3 6.0 64.0- 1.0 0.7---- 0.0------------
1987-07-05 14.5 15.8 11.2 10.6 68.0- 0.3 3.0---- 0.0------------
1987-07-04 15.0 16.5 12.6 10.4 70.5- 4.0 2.7---- 0.0------------
1987-07-03 15.3 18.4 14.6 11.2 66.0- 1.3 1.0---- 0.0------------
1987-07-02 16.2 20.3 13.8 12.1 67.0- 2.7 4.0---- 0.0------------
1987-07-01 19.9 26.5 17.5 18.2 82.5- 7.3 2.7---- 2.8------------
1987-06-30 19.9 28.5 15.3 16.4 85.5- 6.7 0.7---- 0.0------------
1987-06-29 17.5 22.7 11.5 10.0 72.0- 6.7 2.3---- 0.0------------
1987-06-28 12.8 15.6 10.7 11.0 87.5- 5.7 4.3---- 0.1------------
1987-06-27 15.1 18.6 13.1 13.6 66.5- 5.3 5.3---- 6.4------------
1987-06-26 15.7 19.6 10.2 9.2 59.8- 6.7 3.7---- 0.0------------
1987-06-25 13.8 17.3 10.1 7.2 57.8- 6.0 3.7---- 0.0------------
1987-06-24 14.2 16.3 12.2 11.2 78.0- 7.7 3.7---- 0.3------------
1987-06-23 13.4 16.5 11.0 9.9 76.5- 7.0 2.0---- 6.5------------
1987-06-22 15.5 17.7 13.3 13.4 72.0- 6.3 3.3---- 0.1------------
1987-06-21 15.5 18.7 12.3 10.6 73.0- 4.0 0.3---- 1.1------------
1987-06-20 12.4 15.8 9.2 5.7 81.0- 3.3 3.3---- 0.0------------
1987-06-19 11.5 15.3 9.6 9.8 77.5- 7.3 5.3---- 0.0------------
1987-06-18 13.0 16.4 8.2 7.7 60.5- 4.0 5.0---- 0.1------------
1987-06-17 12.9 15.6 10.5 10.0 56.5- 6.3 6.0---- 0.0------------
1987-06-16 12.0 16.1 10.4 11.0 87.0- 7.3 4.3---- 0.7------------
1987-06-15 12.6 17.8 10.1 7.9 77.3- 5.3 3.0---- 13.4------------
1987-06-14 13.6 16.0 11.0 11.0 88.0- 8.0 2.0---- 0.0------------
1987-06-13 12.4 15.4 10.6 10.6 76.5- 3.7 2.0---- 4.2------------
1987-06-12 16.2 22.0 11.1 12.4 69.0- 6.7 3.0---- 5.9------------
1987-06-11 14.4 16.0 11.0 7.8 81.8- 3.3 1.3---- 0.6------------
1987-06-10 13.5 16.4 11.4 10.4 78.0- 6.0 1.3---- 5.2------------
1987-06-09 14.8 19.8 11.0 10.2 66.5- 4.0 4.7---- 0.0------------
1987-06-08 15.2 22.7 11.5 7.6 84.0- 6.0 5.3---- 5.3------------
1987-06-07 14.8 20.6 11.8 12.0 75.3- 6.3 1.7---- 0.1------------
1987-06-06 12.9 19.5 10.0 10.1 78.8- 5.3 4.7---- 0.0------------
1987-06-05 12.0 14.6 10.5 10.6 92.0- 8.0 3.0---- 0.0------------
1987-06-04 12.1 17.2 7.6 7.9 80.5- 7.7 2.0---- 0.3------------
1987-06-03 10.8 16.5 7.8 6.4 76.8- 3.0 3.0---- 0.0------------
1987-06-02 9.9 11.5 8.0 8.3 75.8- 5.3 2.0---- 0.0------------
1987-06-01 8.2 9.2 6.6 6.5 83.3- 6.0 1.3---- 0.0------------
1987-05-31 6.8 8.2 4.7 3.4 85.0- 8.0 1.3---- 0.0------------
1987-05-30 6.3 6.7 5.3 5.3 85.8- 8.0 4.7---- 0.0------------
1987-05-29 7.5 9.7 5.8 7.2 84.3- 8.0 5.0---- 0.0------------
1987-05-28 10.3 15.2 8.5 9.2 87.3- 8.0 5.3---- 4.0------------
1987-05-27 10.4 13.0 6.8 3.0 77.8- 4.0 2.3---- 1.4------------
1987-05-26 10.3 18.0 4.6 -0.8 58.3- 1.3 2.0---- 0.0------------
1987-05-25 7.0 8.8 3.6 2.2 74.0- 2.3 2.7---- 0.0------------
1987-05-24 7.6 11.4 6.1 5.6 71.0- 2.7 5.7---- 0.0------------
1987-05-23 9.5 11.6 6.1 5.5 61.5- 1.7 6.0---- 0.0------------
1987-05-22 7.7 8.6 5.9 6.4 89.5- 7.3 6.0---- 0.0------------
1987-05-21 7.8 9.6 4.0 0.9 77.8- 2.7 2.0---- 0.0------------
1987-05-20 9.6 14.5 5.7 1.6 65.5- 5.3 2.7---- 2.8------------
1987-05-19 9.3 11.3 8.1 6.2 75.0- 6.7 1.3---- 0.0------------
1987-05-18 9.1 11.3 5.6 4.0 73.0- 5.3 3.7---- 0.0------------
1987-05-17 10.0 12.4 8.1 8.1 72.3- 6.7 5.3---- 0.1------------
1987-05-16 9.9 13.1 8.2 8.3 81.3- 7.0 5.0---- 4.9------------
1987-05-15 9.7 14.7 5.0 1.5 62.5- 3.7 6.0---- 0.0------------
1987-05-14 7.5 11.8 6.1 4.5 77.3- 6.7 1.7---- 0.0------------
1987-05-13 10.5 13.7 6.6 7.8 70.8- 8.0 3.0---- 0.1------------
1987-05-12 9.7 14.3 5.6 6.5 68.3- 8.0 7.0---- 1.5------------
1987-05-11 8.7 11.6 5.6 4.3 63.3- 5.0 7.3---- 0.1------------
1987-05-10 12.7 17.8 8.7 6.4 56.0- 5.3 5.0---- 2.4------------
1354.0 ms

 

Źródłem pochodzenia danych jest Instytut Meteorologii i Gospodarki Wodnej – Państwowy Instytut Badawczy. Dane Instytutu Meteorologii i Gospodarki Wodnej – Państwowego Instytutu Badawczego zostały przetworzone.

Dane źródłowe można odnaleźć na stronie https://dane.imgw.pl